createdAt,value
2022-09-03T00:00:06.734Z,99.90
2022-09-03T00:02:40.742Z,99.90
2022-09-03T00:05:13.751Z,99.90
2022-09-03T00:07:48.281Z,99.90
2022-09-03T00:10:22.674Z,99.90
2022-09-03T00:12:50.881Z,99.90
2022-09-03T00:15:20.243Z,99.90
2022-09-03T00:17:50.882Z,99.90
2022-09-03T00:20:23.814Z,99.90
2022-09-03T00:22:53.288Z,99.90
2022-09-03T00:25:26.739Z,99.90
2022-09-03T00:27:57.133Z,99.90
2022-09-03T00:30:28.157Z,99.90
2022-09-03T00:32:58.709Z,99.90
2022-09-03T00:35:28.749Z,99.90
2022-09-03T00:37:57.230Z,99.90
2022-09-03T00:40:37.541Z,99.90
2022-09-03T00:43:09.731Z,99.90
2022-09-03T00:45:45.341Z,99.90
2022-09-03T00:48:17.822Z,99.90
2022-09-03T00:50:51.609Z,99.90
2022-09-03T00:53:24.455Z,99.90
2022-09-03T00:56:01.726Z,99.90
2022-09-03T00:58:45.933Z,99.90
2022-09-03T01:01:18.101Z,99.90
2022-09-03T01:03:53.497Z,99.90
2022-09-03T01:06:31.924Z,99.90
2022-09-03T01:09:13.513Z,99.90
2022-09-03T01:11:49.333Z,99.90
2022-09-03T01:14:23.111Z,99.90
2022-09-03T01:16:58.675Z,99.90
2022-09-03T01:19:48.803Z,99.90
2022-09-03T01:22:40.752Z,99.90
2022-09-03T01:25:17.795Z,99.90
2022-09-03T01:28:06.087Z,99.90
2022-09-03T01:30:36.042Z,99.90
2022-09-03T01:33:05.869Z,99.90
2022-09-03T01:35:36.435Z,99.90
2022-09-03T01:38:12.753Z,99.90
2022-09-03T01:40:47.067Z,99.90
2022-09-03T01:43:29.152Z,99.90
2022-09-03T01:46:03.545Z,99.90
2022-09-03T01:48:37.206Z,99.90
2022-09-03T01:51:11.185Z,99.90
2022-09-03T01:54:10.895Z,99.90
2022-09-03T01:57:26.406Z,99.90
2022-09-03T02:00:01.258Z,99.90
2022-09-03T02:02:33.405Z,99.90
2022-09-03T02:05:02.741Z,99.90
2022-09-03T02:07:35.099Z,99.90
2022-09-03T02:10:07.368Z,99.90
2022-09-03T02:12:38.036Z,99.90
2022-09-03T02:15:11.934Z,99.90
2022-09-03T02:17:40.724Z,99.90
2022-09-03T02:20:12.022Z,99.90
2022-09-03T02:22:41.543Z,99.90
2022-09-03T02:25:11.048Z,99.90
2022-09-03T02:27:39.533Z,99.90
2022-09-03T02:30:11.392Z,99.90
2022-09-03T02:32:39.512Z,99.90
2022-09-03T02:35:08.513Z,99.90
2022-09-03T02:37:36.675Z,99.90
2022-09-03T02:40:08.921Z,99.90
2022-09-03T02:42:37.136Z,99.90
2022-09-03T02:45:15.478Z,99.90
2022-09-03T02:47:45.049Z,99.90
2022-09-03T02:50:13.279Z,99.90
2022-09-03T02:52:41.474Z,99.90
2022-09-03T02:55:14.118Z,99.90
2022-09-03T02:57:56.135Z,99.90
2022-09-03T03:00:26.127Z,99.90
2022-09-03T03:02:54.381Z,99.90
2022-09-03T03:05:25.998Z,99.90
2022-09-03T03:07:57.817Z,99.90
2022-09-03T03:10:26.986Z,99.90
2022-09-03T03:12:55.447Z,99.90
2022-09-03T03:15:25.019Z,99.90
2022-09-03T03:17:53.265Z,99.90
2022-09-03T03:20:21.466Z,99.90
2022-09-03T03:22:49.737Z,99.90
2022-09-03T03:25:18.131Z,99.90
2022-09-03T03:27:46.898Z,99.90
2022-09-03T03:30:15.291Z,99.90
2022-09-03T03:32:45.085Z,99.90
2022-09-03T03:35:13.841Z,99.90
2022-09-03T03:37:42.014Z,99.90
2022-09-03T03:40:11.517Z,99.90
2022-09-03T03:42:39.988Z,99.90
2022-09-03T03:45:20.479Z,99.90
2022-09-03T03:47:50.312Z,99.90
2022-09-03T03:50:18.585Z,99.90
2022-09-03T03:52:47.663Z,99.90
2022-09-03T03:55:18.847Z,99.90
2022-09-03T03:57:47.206Z,99.90
2022-09-03T04:00:16.934Z,99.90
2022-09-03T04:02:45.118Z,99.90
2022-09-03T04:05:15.286Z,99.90
2022-09-03T04:07:44.535Z,99.90
2022-09-03T04:10:12.948Z,99.90
2022-09-03T04:12:42.084Z,99.90
2022-09-03T04:15:14.078Z,99.90
2022-09-03T04:17:44.179Z,99.90
2022-09-03T04:20:13.864Z,99.90
2022-09-03T04:22:43.548Z,99.90
2022-09-03T04:25:12.075Z,99.90
2022-09-03T04:27:40.345Z,99.90
2022-09-03T04:30:10.139Z,99.90
2022-09-03T04:32:56.270Z,99.90
2022-09-03T04:35:25.374Z,99.90
2022-09-03T04:37:56.244Z,99.90
2022-09-03T04:40:25.980Z,99.90
2022-09-03T04:42:59.250Z,99.90
2022-09-03T04:45:28.718Z,99.90
2022-09-03T04:48:00.562Z,99.90
2022-09-03T04:50:29.016Z,99.90
2022-09-03T04:53:05.705Z,99.90
2022-09-03T04:55:36.504Z,99.90
2022-09-03T04:58:04.722Z,99.90
2022-09-03T05:00:32.841Z,99.90
2022-09-03T05:03:02.842Z,99.90
2022-09-03T05:05:31.292Z,99.90
2022-09-03T05:08:03.015Z,99.90
2022-09-03T05:10:31.410Z,99.90
2022-09-03T05:13:00.355Z,99.90
2022-09-03T05:15:28.571Z,99.90
2022-09-03T05:18:00.294Z,99.90
2022-09-03T05:20:30.103Z,99.90
2022-09-03T05:23:00.807Z,99.90
2022-09-03T05:25:32.300Z,99.90
2022-09-03T05:28:00.912Z,99.90
2022-09-03T05:30:40.515Z,99.90
2022-09-03T05:33:09.120Z,99.90
2022-09-03T05:35:37.212Z,99.90
2022-09-03T05:38:06.412Z,99.90
2022-09-03T05:40:36.403Z,99.90
2022-09-03T05:43:51.326Z,99.90
2022-09-03T05:46:20.439Z,99.90
2022-09-03T05:48:48.881Z,99.90
2022-09-03T05:51:21.388Z,99.90
2022-09-03T05:53:50.280Z,99.90
2022-09-03T05:56:23.398Z,99.90
2022-09-03T05:58:53.865Z,99.90
2022-09-03T06:01:34.941Z,99.90
2022-09-03T06:04:04.331Z,99.90
2022-09-03T06:06:33.473Z,99.90
2022-09-03T06:09:02.800Z,99.90
2022-09-03T06:11:57.335Z,99.90
2022-09-03T06:14:26.979Z,99.90
2022-09-03T06:16:59.421Z,99.90
2022-09-03T06:19:29.390Z,99.90
2022-09-03T06:22:00.961Z,99.90
2022-09-03T06:24:30.013Z,99.90
2022-09-03T06:27:00.380Z,99.90
2022-09-03T06:29:28.556Z,99.90
2022-09-03T06:32:08.463Z,99.90
2022-09-03T06:34:36.776Z,99.90
2022-09-03T06:37:07.726Z,99.90
2022-09-03T06:39:36.086Z,99.90
2022-09-03T06:42:11.720Z,99.90
2022-09-03T06:44:40.053Z,99.90
2022-09-03T06:47:08.487Z,99.90
2022-09-03T06:49:39.541Z,99.90
2022-09-03T06:52:15.190Z,99.90
2022-09-03T06:54:44.613Z,99.90
2022-09-03T06:57:14.389Z,99.90
2022-09-03T06:59:45.787Z,99.90
2022-09-03T07:02:15.131Z,99.90
2022-09-03T07:04:45.557Z,99.90
2022-09-03T07:07:16.438Z,99.90
2022-09-03T07:09:48.247Z,99.90
2022-09-03T07:12:19.428Z,99.90
2022-09-03T07:14:48.580Z,99.90
2022-09-03T07:17:19.537Z,99.90
2022-09-03T07:19:52.640Z,99.90
2022-09-03T07:22:31.543Z,99.90
2022-09-03T07:25:00.216Z,99.90
2022-09-03T07:27:30.358Z,99.90
2022-09-03T07:30:09.793Z,99.90
2022-09-03T07:32:44.202Z,99.90
2022-09-03T07:35:13.138Z,99.90
2022-09-03T07:37:43.288Z,99.90
2022-09-03T07:40:12.106Z,99.90
2022-09-03T07:42:42.776Z,99.90
2022-09-03T07:45:11.903Z,99.90
2022-09-03T07:47:47.254Z,99.90
2022-09-03T07:50:21.312Z,99.90
2022-09-03T07:52:51.173Z,99.90
2022-09-03T07:55:20.150Z,99.90
2022-09-03T07:57:56.792Z,99.90
2022-09-03T08:00:25.072Z,99.90
2022-09-03T08:03:01.004Z,99.90
2022-09-03T08:05:29.469Z,99.90
2022-09-03T08:08:03.030Z,99.90
2022-09-03T08:10:41.839Z,99.90
2022-09-03T08:13:21.031Z,99.90
2022-09-03T08:15:55.800Z,99.90
2022-09-03T08:18:24.492Z,99.90
2022-09-03T08:21:02.205Z,99.90
2022-09-03T08:23:31.482Z,99.90
2022-09-03T08:26:04.451Z,99.90
2022-09-03T08:28:36.722Z,99.90
2022-09-03T08:31:10.208Z,99.90
2022-09-03T08:33:44.743Z,99.90
2022-09-03T08:36:14.080Z,99.90
2022-09-03T08:38:43.350Z,99.90
2022-09-03T08:41:16.849Z,99.90
2022-09-03T08:44:10.368Z,99.90
2022-09-03T08:46:45.505Z,99.90
2022-09-03T08:49:29.936Z,99.90
2022-09-03T08:52:00.808Z,99.90
2022-09-03T08:54:39.452Z,99.90
2022-09-03T08:57:15.280Z,99.90
2022-09-03T08:59:49.391Z,99.90
2022-09-03T09:02:26.979Z,99.90
2022-09-03T09:05:06.075Z,99.90
2022-09-03T09:07:45.587Z,99.90
2022-09-03T09:10:18.648Z,99.90
2022-09-03T09:12:49.370Z,99.90
2022-09-03T09:15:29.247Z,99.90
2022-09-03T09:18:09.565Z,99.90
2022-09-03T09:20:43.022Z,99.90
2022-09-03T09:23:15.621Z,99.90
2022-09-03T09:25:56.101Z,99.90
2022-09-03T09:28:25.506Z,99.90
2022-09-03T09:30:57.202Z,99.90
2022-09-03T09:33:25.379Z,99.90
2022-09-03T09:35:53.538Z,99.90
2022-09-03T09:38:32.256Z,99.90
2022-09-03T09:41:10.192Z,99.90
2022-09-03T09:43:39.031Z,99.90
2022-09-03T09:46:14.536Z,99.70
2022-09-03T09:48:51.242Z,99.40
2022-09-03T09:51:28.511Z,99.10
2022-09-03T09:54:03.799Z,98.80
2022-09-03T09:56:33.266Z,98.60
2022-09-03T09:59:10.482Z,98.60
2022-09-03T10:01:47.813Z,98.40
2022-09-03T10:04:37.539Z,98.30
2022-09-03T10:07:23.427Z,98.30
2022-09-03T10:10:04.340Z,98.10
2022-09-03T10:12:45.374Z,98.00
2022-09-03T10:15:30.769Z,98.00
2022-09-03T10:18:20.478Z,97.60
2022-09-03T10:21:00.533Z,97.10
2022-09-03T10:23:33.870Z,96.90
2022-09-03T10:26:12.731Z,96.70
2022-09-03T10:28:42.658Z,96.30
2022-09-03T10:31:21.679Z,96.10
2022-09-03T10:33:55.480Z,96.10
2022-09-03T10:36:25.184Z,96.00
2022-09-03T10:39:04.026Z,95.80
2022-09-03T10:41:46.172Z,95.40
2022-09-03T10:44:35.997Z,95.00
2022-09-03T10:47:19.425Z,95.00
2022-09-03T10:49:59.032Z,94.60
2022-09-03T10:52:35.821Z,94.80
2022-09-03T10:55:22.577Z,94.30
2022-09-03T10:58:00.976Z,94.10
2022-09-03T11:00:30.869Z,94.00
2022-09-03T11:03:34.518Z,93.80
2022-09-03T11:06:11.903Z,93.70
2022-09-03T11:08:48.012Z,93.20
2022-09-03T11:11:20.177Z,93.00
2022-09-03T11:13:56.085Z,92.70
2022-09-03T11:16:33.843Z,92.30
2022-09-03T11:19:09.020Z,92.10
2022-09-03T11:21:45.666Z,92.20
2022-09-03T11:24:19.142Z,91.50
2022-09-03T11:26:54.319Z,91.50
2022-09-03T11:29:26.849Z,91.50
2022-09-03T11:32:00.050Z,91.30
2022-09-03T11:34:35.497Z,90.80
2022-09-03T11:37:21.700Z,90.80
2022-09-03T11:40:01.768Z,90.70
2022-09-03T11:42:37.470Z,90.50
2022-09-03T11:45:30.127Z,90.60
2022-09-03T11:48:11.789Z,90.80
2022-09-03T11:50:47.425Z,90.70
2022-09-03T11:53:28.343Z,90.30
2022-09-03T11:55:57.432Z,89.60
2022-09-03T11:58:45.231Z,89.50
2022-09-03T12:01:19.840Z,89.30
2022-09-03T12:03:59.882Z,89.20
2022-09-03T12:06:58.567Z,88.40
2022-09-03T12:10:05.808Z,88.50
2022-09-03T12:13:05.098Z,88.70
2022-09-03T12:15:46.366Z,89.20
2022-09-03T12:18:24.489Z,88.70
2022-09-03T12:21:17.897Z,88.60
2022-09-03T12:23:58.649Z,88.30
2022-09-03T12:26:35.082Z,88.00
2022-09-03T12:29:12.174Z,88.20
2022-09-03T12:31:51.112Z,87.90
2022-09-03T12:34:25.350Z,87.50
2022-09-03T12:36:54.222Z,87.20
2022-09-03T12:42:28.036Z,87.40
2022-09-03T12:45:11.978Z,87.30
2022-09-03T12:47:46.679Z,86.40
2022-09-03T12:50:16.980Z,86.30
2022-09-03T12:52:53.043Z,86.40
2022-09-03T12:55:33.498Z,86.00
2022-09-03T12:58:09.292Z,85.60
2022-09-03T13:00:45.608Z,84.40
2022-09-03T13:03:19.481Z,83.00
2022-09-03T13:05:51.896Z,82.70
2022-09-03T13:08:28.836Z,82.80
2022-09-03T13:11:06.837Z,83.10
2022-09-03T13:13:42.447Z,83.20
2022-09-03T13:16:36.130Z,83.30
2022-09-03T13:19:07.343Z,82.80
2022-09-03T13:21:45.029Z,82.60
2022-09-03T13:24:28.497Z,82.40
2022-09-03T13:27:07.204Z,82.60
2022-09-03T13:29:42.031Z,82.90
2022-09-03T13:32:19.684Z,83.30
2022-09-03T13:35:01.267Z,82.40
2022-09-03T13:37:35.928Z,82.60
2022-09-03T13:40:11.524Z,82.70
2022-09-03T13:42:43.098Z,82.70
2022-09-03T13:45:25.741Z,82.80
2022-09-03T13:48:19.152Z,82.40
2022-09-03T13:50:59.094Z,81.70
2022-09-03T13:53:33.222Z,81.70
2022-09-03T13:56:05.473Z,82.20
2022-09-03T13:58:41.081Z,81.00
2022-09-03T14:01:21.840Z,81.20
2022-09-03T14:03:52.410Z,81.40
2022-09-03T14:06:28.763Z,80.70
2022-09-03T14:09:05.120Z,80.50
2022-09-03T14:11:36.455Z,79.10
2022-09-03T14:14:12.787Z,79.50
2022-09-03T14:16:50.732Z,79.40
2022-09-03T14:19:28.576Z,78.90
2022-09-03T14:21:59.988Z,78.50
2022-09-03T14:24:34.027Z,78.50
2022-09-03T14:27:09.317Z,79.50
2022-09-03T14:29:38.124Z,80.10
2022-09-03T14:32:40.783Z,80.40
2022-09-03T14:35:40.596Z,80.40
2022-09-03T14:38:34.792Z,80.40
2022-09-03T14:41:12.355Z,80.50
2022-09-03T14:44:08.278Z,80.50
2022-09-03T14:46:53.628Z,80.60
2022-09-03T14:49:56.190Z,80.50
2022-09-03T14:52:37.164Z,80.80
2022-09-03T14:55:16.410Z,80.10
2022-09-03T14:57:55.329Z,80.00
2022-09-03T15:01:26.927Z,80.20
2022-09-03T15:04:31.269Z,80.30
2022-09-03T15:07:21.407Z,80.00
2022-09-03T15:10:02.575Z,80.00
2022-09-03T15:12:35.071Z,79.50
2022-09-03T15:15:10.806Z,78.90
2022-09-03T15:18:02.350Z,78.70
2022-09-03T15:20:48.692Z,79.00
2022-09-03T15:23:28.439Z,79.20
2022-09-03T15:26:33.970Z,80.10
2022-09-03T15:29:21.613Z,79.40
2022-09-03T15:31:54.054Z,79.80
2022-09-03T15:34:46.729Z,79.90
2022-09-03T15:37:20.967Z,79.60
2022-09-03T15:40:00.766Z,79.60
2022-09-03T15:42:46.279Z,79.90
2022-09-03T15:45:20.933Z,79.70
2022-09-03T15:47:54.492Z,79.60
2022-09-03T15:50:30.595Z,79.90
2022-09-03T15:53:03.807Z,80.40
2022-09-03T15:55:37.363Z,80.30
2022-09-03T15:58:17.007Z,80.60
2022-09-03T16:01:00.552Z,80.30
2022-09-03T16:03:47.197Z,80.10
2022-09-03T16:06:44.273Z,80.20
2022-09-03T16:09:21.939Z,80.10
2022-09-03T16:11:56.688Z,80.10
2022-09-03T16:14:36.784Z,80.50
2022-09-03T16:17:09.330Z,80.70
2022-09-03T16:19:43.582Z,80.90
2022-09-03T16:22:18.954Z,81.30
2022-09-03T16:24:50.524Z,81.80
2022-09-03T16:27:21.481Z,82.30
2022-09-03T16:29:59.688Z,83.00
2022-09-03T16:32:55.096Z,83.60
2022-09-03T16:35:29.233Z,83.50
2022-09-03T16:38:04.505Z,83.80
2022-09-03T16:40:37.859Z,84.10
2022-09-03T16:43:38.972Z,84.10
2022-09-03T16:46:11.083Z,84.10
2022-09-03T16:48:47.066Z,84.30
2022-09-03T16:51:22.688Z,84.50
2022-09-03T16:54:06.089Z,85.10
2022-09-03T16:56:51.148Z,85.40
2022-09-03T16:59:31.700Z,85.60
2022-09-03T17:02:37.113Z,85.80
2022-09-03T17:05:17.196Z,85.80
2022-09-03T17:08:11.879Z,86.10
2022-09-03T17:10:44.493Z,86.40
2022-09-03T17:13:34.274Z,86.60
2022-09-03T17:16:04.266Z,86.90
2022-09-03T17:18:39.255Z,87.10
2022-09-03T17:21:23.005Z,87.10
2022-09-03T17:24:13.023Z,87.40
2022-09-03T17:26:50.239Z,87.60
2022-09-03T17:29:29.087Z,88.10
2022-09-03T17:32:04.439Z,89.20
2022-09-03T17:34:44.231Z,90.00
2022-09-03T17:37:20.788Z,90.50
2022-09-03T17:40:20.483Z,90.80
2022-09-03T17:42:56.463Z,91.00
2022-09-03T17:45:34.183Z,91.20
2022-09-03T17:48:22.987Z,91.30
2022-09-03T17:50:57.536Z,91.50
2022-09-03T17:53:32.340Z,91.60
2022-09-03T17:56:01.719Z,91.90
2022-09-03T17:58:33.946Z,92.00
2022-09-03T18:01:06.310Z,92.20
2022-09-03T18:03:40.879Z,92.40
2022-09-03T18:06:12.418Z,92.60
2022-09-03T18:08:48.447Z,92.70
2022-09-03T18:11:20.360Z,93.00
2022-09-03T18:13:51.907Z,93.20
2022-09-03T18:16:23.383Z,93.50
2022-09-03T18:18:52.060Z,93.70
2022-09-03T18:21:41.148Z,93.80
2022-09-03T18:24:38.284Z,93.90
2022-09-03T18:27:30.954Z,94.10
2022-09-03T18:30:19.981Z,94.20
2022-09-03T18:33:05.688Z,94.40
2022-09-03T18:35:53.299Z,94.60
2022-09-03T18:38:46.048Z,94.70
2022-09-03T18:41:53.898Z,95.00
2022-09-03T18:44:48.224Z,95.00
2022-09-03T18:48:02.499Z,95.30
2022-09-03T18:50:54.154Z,95.50
2022-09-03T18:53:47.338Z,95.70
2022-09-03T18:56:43.710Z,96.00
2022-09-03T18:59:36.593Z,96.20
2022-09-03T19:02:24.243Z,96.40
2022-09-03T19:05:24.990Z,96.60
2022-09-03T19:08:13.820Z,96.80
2022-09-03T19:11:05.407Z,97.00
2022-09-03T19:13:52.257Z,97.30
2022-09-03T19:16:43.836Z,97.70
2022-09-03T19:19:50.777Z,98.20
2022-09-03T19:22:38.810Z,98.80
2022-09-03T19:25:26.073Z,99.10
2022-09-03T19:28:21.731Z,99.40
2022-09-03T19:31:12.152Z,99.70
2022-09-03T19:34:00.935Z,99.90
2022-09-03T19:36:48.633Z,99.90
2022-09-03T19:39:44.409Z,99.90
2022-09-03T19:42:32.572Z,99.90
2022-09-03T19:45:25.577Z,99.90
2022-09-03T19:48:16.238Z,99.90
2022-09-03T19:51:03.465Z,99.90
2022-09-03T19:53:49.297Z,99.90
2022-09-03T19:56:38.172Z,99.90
2022-09-03T19:59:30.691Z,99.90
2022-09-03T20:02:17.776Z,99.90
2022-09-03T20:05:04.999Z,99.90
2022-09-03T20:07:50.333Z,99.90
2022-09-03T20:10:23.300Z,99.90
2022-09-03T20:13:03.658Z,99.90
2022-09-03T20:15:36.996Z,99.90
2022-09-03T20:18:10.540Z,99.90
2022-09-03T20:20:43.534Z,99.90
2022-09-03T20:23:15.858Z,99.90
2022-09-03T20:25:57.488Z,99.90
2022-09-03T20:28:36.442Z,99.90
2022-09-03T20:31:09.000Z,99.90
2022-09-03T20:33:47.726Z,99.90
2022-09-03T20:36:21.771Z,99.90
2022-09-03T20:39:16.635Z,99.90
2022-09-03T20:41:48.723Z,99.90
2022-09-03T20:44:38.889Z,99.90
2022-09-03T20:47:16.019Z,99.90
2022-09-03T20:49:53.874Z,99.90
2022-09-03T20:52:26.256Z,99.90
2022-09-03T20:55:03.400Z,99.90
2022-09-03T20:57:38.251Z,99.90
2022-09-03T21:00:10.789Z,99.90
2022-09-03T21:03:07.407Z,99.90
2022-09-03T21:05:39.708Z,99.90
2022-09-03T21:08:13.092Z,99.90
2022-09-03T21:10:45.389Z,99.90
2022-09-03T21:13:22.407Z,99.90
2022-09-03T21:16:00.642Z,99.90
2022-09-03T21:18:38.809Z,99.90
2022-09-03T21:21:19.112Z,99.90
2022-09-03T21:23:48.475Z,99.90
2022-09-03T21:26:27.114Z,99.90
2022-09-03T21:29:01.129Z,99.90
2022-09-03T21:31:38.333Z,99.90
2022-09-03T21:34:10.067Z,99.90
2022-09-03T21:36:40.095Z,99.90
2022-09-03T21:39:10.289Z,99.90
2022-09-03T21:41:47.329Z,99.90
2022-09-03T21:44:19.634Z,99.90
2022-09-03T21:46:51.141Z,99.90
2022-09-03T21:49:21.654Z,99.90
2022-09-03T21:51:54.153Z,99.90
2022-09-03T21:54:24.762Z,99.90
2022-09-03T21:56:59.338Z,99.90
2022-09-03T21:59:46.894Z,99.90
2022-09-03T22:02:20.607Z,99.90
2022-09-03T22:04:48.917Z,99.90
2022-09-03T22:07:21.160Z,99.90
2022-09-03T22:09:53.240Z,99.90
2022-09-03T22:12:24.683Z,99.90
2022-09-03T22:14:55.693Z,99.90
2022-09-03T22:17:27.963Z,99.90
2022-09-03T22:20:01.643Z,99.90
2022-09-03T22:22:35.477Z,99.90
2022-09-03T22:25:05.934Z,99.90
2022-09-03T22:27:40.065Z,99.90
2022-09-03T22:30:11.496Z,99.90
2022-09-03T22:32:46.664Z,99.90
2022-09-03T22:35:57.682Z,99.90
2022-09-03T22:38:37.840Z,99.90
2022-09-03T22:41:10.791Z,99.90
2022-09-03T22:43:40.433Z,99.90
2022-09-03T22:46:13.106Z,99.90
2022-09-03T22:49:08.193Z,99.90
2022-09-03T22:51:44.629Z,99.90
2022-09-03T22:54:23.914Z,99.90
2022-09-03T22:56:52.163Z,99.90
2022-09-03T22:59:26.500Z,99.90
2022-09-03T23:01:58.236Z,99.90
2022-09-03T23:04:49.001Z,99.90
2022-09-03T23:07:26.885Z,99.90
2022-09-03T23:10:24.288Z,99.90
2022-09-03T23:13:05.568Z,99.90
2022-09-03T23:15:47.300Z,99.90
2022-09-03T23:18:17.709Z,99.90
2022-09-03T23:20:49.154Z,99.90
2022-09-03T23:23:19.152Z,99.90
2022-09-03T23:25:50.875Z,99.90
2022-09-03T23:28:25.479Z,99.90
2022-09-03T23:30:53.895Z,99.90
2022-09-03T23:33:22.337Z,99.90
2022-09-03T23:35:53.426Z,99.90
2022-09-03T23:38:25.788Z,99.90
2022-09-03T23:40:56.863Z,99.90
2022-09-03T23:43:38.839Z,99.90
2022-09-03T23:46:10.123Z,99.90
2022-09-03T23:48:45.049Z,99.90
2022-09-03T23:51:17.289Z,99.90
2022-09-03T23:53:50.703Z,99.90
2022-09-03T23:56:35.273Z,99.90
2022-09-03T23:59:10.870Z,99.90
